sensor_id;sensor_type;location;lat;lon;timestamp;P1;durP1;ratioP1;P2;durP2;ratioP2
6987;SDS011;3534;49.960;8.018;2022-09-29T00:00:05;6.63;;;2.83;;
6987;SDS011;3534;49.960;8.018;2022-09-29T00:02:32;3.83;;;1.93;;
6987;SDS011;3534;49.960;8.018;2022-09-29T00:04:59;3.40;;;2.87;;
6987;SDS011;3534;49.960;8.018;2022-09-29T00:07:27;3.20;;;2.50;;
6987;SDS011;3534;49.960;8.018;2022-09-29T00:09:55;3.30;;;2.60;;
6987;SDS011;3534;49.960;8.018;2022-09-29T00:12:22;2.60;;;2.20;;
6987;SDS011;3534;49.960;8.018;2022-09-29T00:14:49;2.90;;;2.03;;
6987;SDS011;3534;49.960;8.018;2022-09-29T00:17:15;4.10;;;1.83;;
6987;SDS011;3534;49.960;8.018;2022-09-29T00:19:42;3.97;;;2.40;;
6987;SDS011;3534;49.960;8.018;2022-09-29T00:22:09;3.93;;;3.03;;
6987;SDS011;3534;49.960;8.018;2022-09-29T00:24:35;4.30;;;2.90;;
6987;SDS011;3534;49.960;8.018;2022-09-29T00:27:04;4.50;;;2.50;;
6987;SDS011;3534;49.960;8.018;2022-09-29T00:29:30;3.93;;;2.47;;
6987;SDS011;3534;49.960;8.018;2022-09-29T00:31:57;3.13;;;2.60;;
6987;SDS011;3534;49.960;8.018;2022-09-29T00:34:23;3.70;;;2.57;;
6987;SDS011;3534;49.960;8.018;2022-09-29T00:36:50;3.90;;;2.80;;
6987;SDS011;3534;49.960;8.018;2022-09-29T00:39:17;2.50;;;2.20;;
6987;SDS011;3534;49.960;8.018;2022-09-29T00:41:44;2.70;;;2.43;;
6987;SDS011;3534;49.960;8.018;2022-09-29T00:47:12;3.03;;;2.13;;
6987;SDS011;3534;49.960;8.018;2022-09-29T00:49:44;5.90;;;2.40;;
6987;SDS011;3534;49.960;8.018;2022-09-29T00:52:16;3.33;;;2.77;;
6987;SDS011;3534;49.960;8.018;2022-09-29T00:54:46;3.93;;;2.20;;
6987;SDS011;3534;49.960;8.018;2022-09-29T00:57:16;3.30;;;2.30;;
6987;SDS011;3534;49.960;8.018;2022-09-29T00:59:46;6.10;;;2.20;;
6987;SDS011;3534;49.960;8.018;2022-09-29T01:02:19;4.17;;;2.90;;
6987;SDS011;3534;49.960;8.018;2022-09-29T01:04:48;4.73;;;2.50;;
6987;SDS011;3534;49.960;8.018;2022-09-29T01:07:17;2.73;;;2.50;;
6987;SDS011;3534;49.960;8.018;2022-09-29T01:09:45;3.37;;;2.23;;
6987;SDS011;3534;49.960;8.018;2022-09-29T01:12:12;3.87;;;2.27;;
6987;SDS011;3534;49.960;8.018;2022-09-29T01:14:40;2.30;;;2.20;;
6987;SDS011;3534;49.960;8.018;2022-09-29T01:17:06;2.57;;;2.37;;
6987;SDS011;3534;49.960;8.018;2022-09-29T01:19:38;4.17;;;2.50;;
6987;SDS011;3534;49.960;8.018;2022-09-29T01:22:13;6.37;;;2.57;;
6987;SDS011;3534;49.960;8.018;2022-09-29T01:24:57;4.13;;;2.20;;
6987;SDS011;3534;49.960;8.018;2022-09-29T01:30:46;5.47;;;2.57;;
6987;SDS011;3534;49.960;8.018;2022-09-29T01:33:36;2.53;;;2.10;;
6987;SDS011;3534;49.960;8.018;2022-09-29T01:36:08;5.03;;;2.20;;
6987;SDS011;3534;49.960;8.018;2022-09-29T01:38:45;7.47;;;2.40;;
6987;SDS011;3534;49.960;8.018;2022-09-29T01:41:20;3.47;;;2.43;;
6987;SDS011;3534;49.960;8.018;2022-09-29T01:43:54;3.47;;;2.40;;
6987;SDS011;3534;49.960;8.018;2022-09-29T01:46:27;10.37;;;1.97;;
6987;SDS011;3534;49.960;8.018;2022-09-29T01:48:58;3.10;;;1.90;;
6987;SDS011;3534;49.960;8.018;2022-09-29T01:51:28;4.47;;;2.30;;
6987;SDS011;3534;49.960;8.018;2022-09-29T01:54:02;3.70;;;2.50;;
6987;SDS011;3534;49.960;8.018;2022-09-29T01:56:34;2.80;;;2.60;;
6987;SDS011;3534;49.960;8.018;2022-09-29T01:59:04;2.53;;;2.33;;
6987;SDS011;3534;49.960;8.018;2022-09-29T02:01:39;5.43;;;2.40;;
6987;SDS011;3534;49.960;8.018;2022-09-29T02:04:10;3.90;;;2.50;;
6987;SDS011;3534;49.960;8.018;2022-09-29T02:06:42;3.53;;;2.50;;
6987;SDS011;3534;49.960;8.018;2022-09-29T02:09:15;3.57;;;2.37;;
6987;SDS011;3534;49.960;8.018;2022-09-29T02:11:46;3.57;;;2.50;;
6987;SDS011;3534;49.960;8.018;2022-09-29T02:14:17;4.83;;;2.43;;
6987;SDS011;3534;49.960;8.018;2022-09-29T02:16:48;4.40;;;2.43;;
6987;SDS011;3534;49.960;8.018;2022-09-29T02:19:21;3.53;;;2.03;;
6987;SDS011;3534;49.960;8.018;2022-09-29T02:21:51;4.30;;;1.97;;
6987;SDS011;3534;49.960;8.018;2022-09-29T02:24:18;5.97;;;2.80;;
6987;SDS011;3534;49.960;8.018;2022-09-29T02:26:46;2.60;;;2.20;;
6987;SDS011;3534;49.960;8.018;2022-09-29T02:29:13;4.07;;;2.50;;
6987;SDS011;3534;49.960;8.018;2022-09-29T02:31:41;10.03;;;2.13;;
6987;SDS011;3534;49.960;8.018;2022-09-29T02:34:12;13.13;;;2.50;;
6987;SDS011;3534;49.960;8.018;2022-09-29T02:36:42;3.17;;;2.87;;
6987;SDS011;3534;49.960;8.018;2022-09-29T02:39:21;2.43;;;1.93;;
6987;SDS011;3534;49.960;8.018;2022-09-29T02:41:59;3.13;;;2.60;;
6987;SDS011;3534;49.960;8.018;2022-09-29T02:44:49;3.40;;;2.80;;
6987;SDS011;3534;49.960;8.018;2022-09-29T02:47:31;2.73;;;1.97;;
6987;SDS011;3534;49.960;8.018;2022-09-29T02:50:22;2.40;;;2.20;;
6987;SDS011;3534;49.960;8.018;2022-09-29T02:53:02;6.07;;;2.20;;
6987;SDS011;3534;49.960;8.018;2022-09-29T02:55:37;2.50;;;2.30;;
6987;SDS011;3534;49.960;8.018;2022-09-29T02:58:09;8.57;;;2.63;;
6987;SDS011;3534;49.960;8.018;2022-09-29T03:00:41;3.07;;;2.30;;
6987;SDS011;3534;49.960;8.018;2022-09-29T03:03:08;2.10;;;1.90;;
6987;SDS011;3534;49.960;8.018;2022-09-29T03:05:36;2.90;;;2.27;;
6987;SDS011;3534;49.960;8.018;2022-09-29T03:08:03;4.23;;;2.30;;
6987;SDS011;3534;49.960;8.018;2022-09-29T03:10:30;2.53;;;2.33;;
6987;SDS011;3534;49.960;8.018;2022-09-29T03:12:56;4.20;;;2.67;;
6987;SDS011;3534;49.960;8.018;2022-09-29T03:15:23;3.40;;;2.10;;
6987;SDS011;3534;49.960;8.018;2022-09-29T03:17:53;3.00;;;2.20;;
6987;SDS011;3534;49.960;8.018;2022-09-29T03:20:21;4.20;;;2.20;;
6987;SDS011;3534;49.960;8.018;2022-09-29T03:22:49;4.00;;;2.33;;
6987;SDS011;3534;49.960;8.018;2022-09-29T03:25:16;3.23;;;2.27;;
6987;SDS011;3534;49.960;8.018;2022-09-29T03:27:43;3.83;;;2.30;;
6987;SDS011;3534;49.960;8.018;2022-09-29T03:30:10;5.50;;;2.57;;
6987;SDS011;3534;49.960;8.018;2022-09-29T03:32:38;4.10;;;2.53;;
6987;SDS011;3534;49.960;8.018;2022-09-29T03:35:05;5.77;;;2.60;;
6987;SDS011;3534;49.960;8.018;2022-09-29T03:37:32;5.50;;;2.40;;
6987;SDS011;3534;49.960;8.018;2022-09-29T03:40:01;4.77;;;2.13;;
6987;SDS011;3534;49.960;8.018;2022-09-29T03:42:29;4.70;;;2.87;;
6987;SDS011;3534;49.960;8.018;2022-09-29T03:44:56;5.90;;;2.63;;
6987;SDS011;3534;49.960;8.018;2022-09-29T03:47:23;4.23;;;2.00;;
6987;SDS011;3534;49.960;8.018;2022-09-29T03:49:50;3.13;;;2.23;;
6987;SDS011;3534;49.960;8.018;2022-09-29T03:52:17;2.10;;;1.90;;
6987;SDS011;3534;49.960;8.018;2022-09-29T03:54:44;4.70;;;2.20;;
6987;SDS011;3534;49.960;8.018;2022-09-29T03:57:12;3.93;;;2.30;;
6987;SDS011;3534;49.960;8.018;2022-09-29T03:59:38;4.60;;;2.67;;
6987;SDS011;3534;49.960;8.018;2022-09-29T04:02:05;2.70;;;2.30;;
6987;SDS011;3534;49.960;8.018;2022-09-29T04:04:32;3.10;;;2.40;;
6987;SDS011;3534;49.960;8.018;2022-09-29T04:06:59;3.73;;;2.77;;
6987;SDS011;3534;49.960;8.018;2022-09-29T04:09:25;6.37;;;2.73;;
6987;SDS011;3534;49.960;8.018;2022-09-29T04:11:52;9.10;;;2.17;;
6987;SDS011;3534;49.960;8.018;2022-09-29T04:14:20;3.43;;;2.10;;
6987;SDS011;3534;49.960;8.018;2022-09-29T04:16:47;3.53;;;2.33;;
6987;SDS011;3534;49.960;8.018;2022-09-29T04:19:14;4.80;;;2.83;;
6987;SDS011;3534;49.960;8.018;2022-09-29T04:21:41;2.77;;;2.57;;
6987;SDS011;3534;49.960;8.018;2022-09-29T04:24:07;4.50;;;3.03;;
6987;SDS011;3534;49.960;8.018;2022-09-29T04:26:34;4.10;;;3.27;;
6987;SDS011;3534;49.960;8.018;2022-09-29T04:29:01;4.40;;;3.03;;
6987;SDS011;3534;49.960;8.018;2022-09-29T04:31:29;7.30;;;3.00;;
6987;SDS011;3534;49.960;8.018;2022-09-29T04:33:56;4.77;;;2.90;;
6987;SDS011;3534;49.960;8.018;2022-09-29T04:36:22;10.47;;;4.57;;
6987;SDS011;3534;49.960;8.018;2022-09-29T04:38:49;10.37;;;6.53;;
6987;SDS011;3534;49.960;8.018;2022-09-29T04:41:16;7.73;;;4.60;;
6987;SDS011;3534;49.960;8.018;2022-09-29T04:43:43;4.40;;;4.00;;
6987;SDS011;3534;49.960;8.018;2022-09-29T04:46:10;3.40;;;2.80;;
6987;SDS011;3534;49.960;8.018;2022-09-29T04:48:39;3.77;;;2.23;;
6987;SDS011;3534;49.960;8.018;2022-09-29T04:51:06;8.00;;;2.67;;
6987;SDS011;3534;49.960;8.018;2022-09-29T04:53:34;3.07;;;2.77;;
6987;SDS011;3534;49.960;8.018;2022-09-29T04:56:05;6.50;;;5.07;;
6987;SDS011;3534;49.960;8.018;2022-09-29T04:58:33;8.17;;;5.43;;
6987;SDS011;3534;49.960;8.018;2022-09-29T05:01:04;8.70;;;5.63;;
6987;SDS011;3534;49.960;8.018;2022-09-29T05:03:36;7.73;;;4.83;;
6987;SDS011;3534;49.960;8.018;2022-09-29T05:06:05;4.73;;;3.63;;
6987;SDS011;3534;49.960;8.018;2022-09-29T05:08:32;4.60;;;2.97;;
6987;SDS011;3534;49.960;8.018;2022-09-29T05:11:01;4.83;;;4.00;;
6987;SDS011;3534;49.960;8.018;2022-09-29T05:13:29;8.13;;;4.20;;
6987;SDS011;3534;49.960;8.018;2022-09-29T05:15:55;12.00;;;4.57;;
6987;SDS011;3534;49.960;8.018;2022-09-29T05:18:22;9.03;;;5.03;;
6987;SDS011;3534;49.960;8.018;2022-09-29T05:20:49;7.60;;;5.23;;
6987;SDS011;3534;49.960;8.018;2022-09-29T05:23:18;10.43;;;5.50;;
6987;SDS011;3534;49.960;8.018;2022-09-29T05:25:45;13.80;;;7.63;;
6987;SDS011;3534;49.960;8.018;2022-09-29T05:28:11;9.00;;;5.20;;
6987;SDS011;3534;49.960;8.018;2022-09-29T05:30:39;8.40;;;5.77;;
6987;SDS011;3534;49.960;8.018;2022-09-29T05:33:06;18.00;;;6.70;;
6987;SDS011;3534;49.960;8.018;2022-09-29T05:35:33;8.67;;;5.60;;
6987;SDS011;3534;49.960;8.018;2022-09-29T05:38:00;14.70;;;6.70;;
6987;SDS011;3534;49.960;8.018;2022-09-29T05:40:28;11.33;;;6.70;;
6987;SDS011;3534;49.960;8.018;2022-09-29T05:42:54;13.73;;;6.00;;
6987;SDS011;3534;49.960;8.018;2022-09-29T05:45:23;20.50;;;4.83;;
6987;SDS011;3534;49.960;8.018;2022-09-29T05:47:50;8.23;;;4.60;;
6987;SDS011;3534;49.960;8.018;2022-09-29T05:50:18;17.37;;;4.70;;
6987;SDS011;3534;49.960;8.018;2022-09-29T05:52:45;6.97;;;4.00;;
6987;SDS011;3534;49.960;8.018;2022-09-29T05:55:13;6.17;;;4.60;;
6987;SDS011;3534;49.960;8.018;2022-09-29T05:57:44;6.00;;;4.03;;
6987;SDS011;3534;49.960;8.018;2022-09-29T06:00:13;4.67;;;4.00;;
6987;SDS011;3534;49.960;8.018;2022-09-29T06:02:40;11.47;;;3.70;;
6987;SDS011;3534;49.960;8.018;2022-09-29T06:05:07;6.83;;;5.13;;
6987;SDS011;3534;49.960;8.018;2022-09-29T06:07:33;7.57;;;4.90;;
6987;SDS011;3534;49.960;8.018;2022-09-29T06:10:00;6.30;;;4.87;;
6987;SDS011;3534;49.960;8.018;2022-09-29T06:12:27;4.73;;;3.80;;
6987;SDS011;3534;49.960;8.018;2022-09-29T06:14:55;7.33;;;4.10;;
6987;SDS011;3534;49.960;8.018;2022-09-29T06:17:22;4.60;;;4.10;;
6987;SDS011;3534;49.960;8.018;2022-09-29T06:19:48;4.70;;;3.60;;
6987;SDS011;3534;49.960;8.018;2022-09-29T06:22:16;4.30;;;3.90;;
6987;SDS011;3534;49.960;8.018;2022-09-29T06:24:44;4.47;;;3.70;;
6987;SDS011;3534;49.960;8.018;2022-09-29T06:27:11;4.73;;;4.00;;
6987;SDS011;3534;49.960;8.018;2022-09-29T06:29:38;4.87;;;3.70;;
6987;SDS011;3534;49.960;8.018;2022-09-29T06:32:06;5.80;;;3.80;;
6987;SDS011;3534;49.960;8.018;2022-09-29T06:34:33;5.40;;;3.87;;
6987;SDS011;3534;49.960;8.018;2022-09-29T06:37:20;4.17;;;3.77;;
6987;SDS011;3534;49.960;8.018;2022-09-29T06:40:00;7.73;;;3.73;;
6987;SDS011;3534;49.960;8.018;2022-09-29T06:42:28;6.23;;;3.17;;
6987;SDS011;3534;49.960;8.018;2022-09-29T06:44:55;8.33;;;4.00;;
6987;SDS011;3534;49.960;8.018;2022-09-29T06:47:23;7.80;;;4.20;;
6987;SDS011;3534;49.960;8.018;2022-09-29T06:49:50;11.13;;;4.30;;
6987;SDS011;3534;49.960;8.018;2022-09-29T06:52:16;7.30;;;5.17;;
6987;SDS011;3534;49.960;8.018;2022-09-29T06:54:43;7.27;;;5.10;;
6987;SDS011;3534;49.960;8.018;2022-09-29T06:57:11;8.40;;;4.63;;
6987;SDS011;3534;49.960;8.018;2022-09-29T06:59:38;6.40;;;4.43;;
6987;SDS011;3534;49.960;8.018;2022-09-29T07:02:05;5.27;;;4.77;;
6987;SDS011;3534;49.960;8.018;2022-09-29T07:04:33;6.20;;;5.03;;
6987;SDS011;3534;49.960;8.018;2022-09-29T07:07:00;6.70;;;4.20;;
6987;SDS011;3534;49.960;8.018;2022-09-29T07:09:26;6.33;;;5.13;;
6987;SDS011;3534;49.960;8.018;2022-09-29T07:11:53;7.07;;;4.60;;
6987;SDS011;3534;49.960;8.018;2022-09-29T07:14:20;15.43;;;4.83;;
6987;SDS011;3534;49.960;8.018;2022-09-29T07:16:49;10.03;;;4.80;;
6987;SDS011;3534;49.960;8.018;2022-09-29T07:19:16;9.00;;;5.30;;
6987;SDS011;3534;49.960;8.018;2022-09-29T07:21:45;6.43;;;4.73;;
6987;SDS011;3534;49.960;8.018;2022-09-29T07:24:12;10.43;;;7.00;;
6987;SDS011;3534;49.960;8.018;2022-09-29T07:26:39;13.17;;;5.43;;
6987;SDS011;3534;49.960;8.018;2022-09-29T07:29:06;5.23;;;4.53;;
6987;SDS011;3534;49.960;8.018;2022-09-29T07:31:33;18.53;;;6.67;;
6987;SDS011;3534;49.960;8.018;2022-09-29T07:34:00;6.80;;;4.70;;
6987;SDS011;3534;49.960;8.018;2022-09-29T07:36:26;6.50;;;4.50;;
6987;SDS011;3534;49.960;8.018;2022-09-29T07:38:54;5.23;;;4.73;;
6987;SDS011;3534;49.960;8.018;2022-09-29T07:41:21;8.83;;;5.70;;
6987;SDS011;3534;49.960;8.018;2022-09-29T07:43:48;14.17;;;5.70;;
6987;SDS011;3534;49.960;8.018;2022-09-29T07:46:15;7.03;;;5.40;;
6987;SDS011;3534;49.960;8.018;2022-09-29T07:48:42;5.17;;;4.67;;
6987;SDS011;3534;49.960;8.018;2022-09-29T07:51:09;9.80;;;5.57;;
6987;SDS011;3534;49.960;8.018;2022-09-29T07:53:38;12.60;;;8.40;;
6987;SDS011;3534;49.960;8.018;2022-09-29T07:56:08;7.17;;;4.40;;
6987;SDS011;3534;49.960;8.018;2022-09-29T07:58:36;5.70;;;4.40;;
6987;SDS011;3534;49.960;8.018;2022-09-29T08:01:04;6.47;;;5.80;;
6987;SDS011;3534;49.960;8.018;2022-09-29T08:03:34;6.43;;;5.83;;
6987;SDS011;3534;49.960;8.018;2022-09-29T08:06:01;7.87;;;6.60;;
6987;SDS011;3534;49.960;8.018;2022-09-29T08:08:28;8.17;;;6.63;;
6987;SDS011;3534;49.960;8.018;2022-09-29T08:11:00;23.50;;;12.67;;
6987;SDS011;3534;49.960;8.018;2022-09-29T08:13:29;10.50;;;8.00;;
6987;SDS011;3534;49.960;8.018;2022-09-29T08:15:56;10.10;;;7.27;;
6987;SDS011;3534;49.960;8.018;2022-09-29T08:18:24;10.10;;;8.27;;
6987;SDS011;3534;49.960;8.018;2022-09-29T08:20:51;13.67;;;8.40;;
6987;SDS011;3534;49.960;8.018;2022-09-29T08:23:19;12.00;;;9.60;;
6987;SDS011;3534;49.960;8.018;2022-09-29T08:25:45;10.93;;;8.53;;
6987;SDS011;3534;49.960;8.018;2022-09-29T08:28:12;11.60;;;9.20;;
6987;SDS011;3534;49.960;8.018;2022-09-29T08:30:40;17.53;;;8.97;;
6987;SDS011;3534;49.960;8.018;2022-09-29T08:33:07;29.30;;;15.33;;
6987;SDS011;3534;49.960;8.018;2022-09-29T08:35:38;11.70;;;8.40;;
6987;SDS011;3534;49.960;8.018;2022-09-29T08:38:05;13.07;;;8.57;;
6987;SDS011;3534;49.960;8.018;2022-09-29T08:40:32;10.50;;;8.60;;
6987;SDS011;3534;49.960;8.018;2022-09-29T08:43:00;13.33;;;8.30;;
6987;SDS011;3534;49.960;8.018;2022-09-29T08:45:34;15.10;;;9.70;;
6987;SDS011;3534;49.960;8.018;2022-09-29T08:48:08;15.60;;;9.50;;
6987;SDS011;3534;49.960;8.018;2022-09-29T08:50:40;13.20;;;10.00;;
6987;SDS011;3534;49.960;8.018;2022-09-29T08:53:12;13.27;;;9.53;;
6987;SDS011;3534;49.960;8.018;2022-09-29T08:55:42;10.70;;;9.17;;
6987;SDS011;3534;49.960;8.018;2022-09-29T08:58:13;11.57;;;9.60;;
6987;SDS011;3534;49.960;8.018;2022-09-29T09:00:42;13.53;;;9.30;;
6987;SDS011;3534;49.960;8.018;2022-09-29T09:03:27;15.70;;;9.57;;
6987;SDS011;3534;49.960;8.018;2022-09-29T09:06:25;12.90;;;9.23;;
6987;SDS011;3534;49.960;8.018;2022-09-29T09:09:02;12.47;;;8.83;;
6987;SDS011;3534;49.960;8.018;2022-09-29T09:11:41;13.23;;;9.70;;
6987;SDS011;3534;49.960;8.018;2022-09-29T09:14:22;11.47;;;9.03;;
6987;SDS011;3534;49.960;8.018;2022-09-29T09:17:02;11.20;;;9.00;;
6987;SDS011;3534;49.960;8.018;2022-09-29T09:22:53;20.67;;;9.00;;
6987;SDS011;3534;49.960;8.018;2022-09-29T09:25:28;10.50;;;8.93;;
6987;SDS011;3534;49.960;8.018;2022-09-29T09:28:03;15.53;;;9.70;;
6987;SDS011;3534;49.960;8.018;2022-09-29T09:30:34;14.90;;;9.60;;
6987;SDS011;3534;49.960;8.018;2022-09-29T09:33:06;14.03;;;9.20;;
6987;SDS011;3534;49.960;8.018;2022-09-29T09:35:43;10.93;;;8.93;;
6987;SDS011;3534;49.960;8.018;2022-09-29T09:38:14;29.83;;;16.03;;
6987;SDS011;3534;49.960;8.018;2022-09-29T09:40:44;14.67;;;10.57;;
6987;SDS011;3534;49.960;8.018;2022-09-29T09:43:13;10.97;;;8.60;;
6987;SDS011;3534;49.960;8.018;2022-09-29T09:45:45;15.73;;;8.47;;
6987;SDS011;3534;49.960;8.018;2022-09-29T09:48:16;15.80;;;8.17;;
6987;SDS011;3534;49.960;8.018;2022-09-29T09:50:48;10.30;;;8.40;;
6987;SDS011;3534;49.960;8.018;2022-09-29T09:53:18;9.57;;;7.27;;
6987;SDS011;3534;49.960;8.018;2022-09-29T09:55:46;8.03;;;6.33;;
6987;SDS011;3534;49.960;8.018;2022-09-29T09:58:24;14.03;;;7.30;;
6987;SDS011;3534;49.960;8.018;2022-09-29T10:00:57;7.70;;;6.07;;
6987;SDS011;3534;49.960;8.018;2022-09-29T10:03:28;15.00;;;6.33;;
6987;SDS011;3534;49.960;8.018;2022-09-29T10:05:56;14.10;;;6.70;;
6987;SDS011;3534;49.960;8.018;2022-09-29T10:08:24;10.43;;;6.10;;
6987;SDS011;3534;49.960;8.018;2022-09-29T10:10:54;9.23;;;5.40;;
6987;SDS011;3534;49.960;8.018;2022-09-29T10:13:23;11.20;;;6.43;;
6987;SDS011;3534;49.960;8.018;2022-09-29T10:15:52;7.50;;;4.60;;
6987;SDS011;3534;49.960;8.018;2022-09-29T10:18:22;5.97;;;5.00;;
6987;SDS011;3534;49.960;8.018;2022-09-29T10:20:53;7.75;;;5.53;;
6987;SDS011;3534;49.960;8.018;2022-09-29T10:23:25;11.30;;;5.87;;
6987;SDS011;3534;49.960;8.018;2022-09-29T10:25:56;6.43;;;4.60;;
6987;SDS011;3534;49.960;8.018;2022-09-29T10:28:27;7.27;;;4.53;;
6987;SDS011;3534;49.960;8.018;2022-09-29T10:31:01;6.40;;;4.33;;
6987;SDS011;3534;49.960;8.018;2022-09-29T10:33:44;8.00;;;4.77;;
6987;SDS011;3534;49.960;8.018;2022-09-29T10:36:13;5.50;;;4.17;;
6987;SDS011;3534;49.960;8.018;2022-09-29T10:38:45;5.20;;;4.80;;
6987;SDS011;3534;49.960;8.018;2022-09-29T10:41:14;4.70;;;3.97;;
6987;SDS011;3534;49.960;8.018;2022-09-29T10:43:44;7.00;;;4.30;;
6987;SDS011;3534;49.960;8.018;2022-09-29T10:49:09;6.80;;;3.97;;
6987;SDS011;3534;49.960;8.018;2022-09-29T10:51:40;9.27;;;4.00;;
6987;SDS011;3534;49.960;8.018;2022-09-29T10:54:14;9.50;;;4.53;;
6987;SDS011;3534;49.960;8.018;2022-09-29T10:56:44;11.03;;;4.10;;
6987;SDS011;3534;49.960;8.018;2022-09-29T10:59:12;16.33;;;4.00;;
6987;SDS011;3534;49.960;8.018;2022-09-29T11:01:42;4.40;;;3.50;;
6987;SDS011;3534;49.960;8.018;2022-09-29T11:04:14;7.73;;;4.57;;
6987;SDS011;3534;49.960;8.018;2022-09-29T11:06:44;7.13;;;3.60;;
6987;SDS011;3534;49.960;8.018;2022-09-29T11:09:26;5.53;;;3.20;;
6987;SDS011;3534;49.960;8.018;2022-09-29T11:11:55;5.60;;;3.67;;
6987;SDS011;3534;49.960;8.018;2022-09-29T11:14:23;4.33;;;3.30;;
6987;SDS011;3534;49.960;8.018;2022-09-29T11:16:52;6.00;;;3.30;;
6987;SDS011;3534;49.960;8.018;2022-09-29T11:19:20;8.47;;;3.60;;
6987;SDS011;3534;49.960;8.018;2022-09-29T11:25:00;7.23;;;3.93;;
6987;SDS011;3534;49.960;8.018;2022-09-29T11:27:53;6.23;;;3.57;;
6987;SDS011;3534;49.960;8.018;2022-09-29T11:30:31;7.40;;;4.13;;
6987;SDS011;3534;49.960;8.018;2022-09-29T11:33:13;8.63;;;3.90;;
6987;SDS011;3534;49.960;8.018;2022-09-29T11:35:53;9.00;;;3.23;;
6987;SDS011;3534;49.960;8.018;2022-09-29T11:38:36;3.93;;;3.57;;
6987;SDS011;3534;49.960;8.018;2022-09-29T11:41:16;17.13;;;3.83;;
6987;SDS011;3534;49.960;8.018;2022-09-29T11:43:57;6.53;;;4.23;;
6987;SDS011;3534;49.960;8.018;2022-09-29T11:46:41;6.67;;;3.87;;
6987;SDS011;3534;49.960;8.018;2022-09-29T11:49:25;7.30;;;3.60;;
6987;SDS011;3534;49.960;8.018;2022-09-29T11:52:06;6.17;;;3.73;;
6987;SDS011;3534;49.960;8.018;2022-09-29T11:55:04;7.77;;;3.63;;
6987;SDS011;3534;49.960;8.018;2022-09-29T11:57:43;5.93;;;3.50;;
6987;SDS011;3534;49.960;8.018;2022-09-29T12:00:19;6.27;;;3.20;;
6987;SDS011;3534;49.960;8.018;2022-09-29T12:05:57;6.50;;;3.37;;
6987;SDS011;3534;49.960;8.018;2022-09-29T12:08:40;3.70;;;3.33;;
6987;SDS011;3534;49.960;8.018;2022-09-29T12:11:15;6.77;;;3.80;;
6987;SDS011;3534;49.960;8.018;2022-09-29T12:13:50;4.53;;;3.60;;
6987;SDS011;3534;49.960;8.018;2022-09-29T12:16:23;6.87;;;3.27;;
6987;SDS011;3534;49.960;8.018;2022-09-29T12:18:55;5.97;;;3.20;;
6987;SDS011;3534;49.960;8.018;2022-09-29T12:21:26;9.20;;;3.57;;
6987;SDS011;3534;49.960;8.018;2022-09-29T12:23:57;4.70;;;3.20;;
6987;SDS011;3534;49.960;8.018;2022-09-29T12:26:28;4.80;;;3.13;;
6987;SDS011;3534;49.960;8.018;2022-09-29T12:35:47;8.30;;;3.53;;
6987;SDS011;3534;49.960;8.018;2022-09-29T12:38:21;7.87;;;3.70;;
6987;SDS011;3534;49.960;8.018;2022-09-29T12:44:30;4.70;;;3.03;;
6987;SDS011;3534;49.960;8.018;2022-09-29T12:47:04;7.10;;;2.70;;
6987;SDS011;3534;49.960;8.018;2022-09-29T12:49:36;7.20;;;2.40;;
6987;SDS011;3534;49.960;8.018;2022-09-29T12:52:11;5.13;;;2.90;;
6987;SDS011;3534;49.960;8.018;2022-09-29T12:54:45;5.33;;;3.00;;
6987;SDS011;3534;49.960;8.018;2022-09-29T12:57:17;6.20;;;2.23;;
6987;SDS011;3534;49.960;8.018;2022-09-29T12:59:48;4.30;;;2.60;;
6987;SDS011;3534;49.960;8.018;2022-09-29T13:02:33;3.17;;;2.33;;
6987;SDS011;3534;49.960;8.018;2022-09-29T13:05:15;7.30;;;2.60;;
6987;SDS011;3534;49.960;8.018;2022-09-29T13:08:19;2.80;;;1.87;;
6987;SDS011;3534;49.960;8.018;2022-09-29T13:11:01;3.80;;;1.93;;
6987;SDS011;3534;49.960;8.018;2022-09-29T13:16:35;2.50;;;1.87;;
6987;SDS011;3534;49.960;8.018;2022-09-29T13:22:20;2.03;;;1.83;;
6987;SDS011;3534;49.960;8.018;2022-09-29T13:25:18;3.10;;;1.60;;
6987;SDS011;3534;49.960;8.018;2022-09-29T13:27:49;2.40;;;1.40;;
6987;SDS011;3534;49.960;8.018;2022-09-29T13:30:18;2.57;;;1.90;;
6987;SDS011;3534;49.960;8.018;2022-09-29T13:32:47;3.37;;;1.40;;
6987;SDS011;3534;49.960;8.018;2022-09-29T13:35:15;5.50;;;1.40;;
6987;SDS011;3534;49.960;8.018;2022-09-29T13:37:46;2.60;;;1.60;;
6987;SDS011;3534;49.960;8.018;2022-09-29T13:40:18;5.67;;;1.50;;
6987;SDS011;3534;49.960;8.018;2022-09-29T13:42:48;4.43;;;1.70;;
6987;SDS011;3534;49.960;8.018;2022-09-29T13:54:19;5.17;;;1.37;;
6987;SDS011;3534;49.960;8.018;2022-09-29T13:56:57;6.63;;;1.90;;
6987;SDS011;3534;49.960;8.018;2022-09-29T13:59:26;3.27;;;1.20;;
6987;SDS011;3534;49.960;8.018;2022-09-29T14:01:54;2.07;;;1.40;;
6987;SDS011;3534;49.960;8.018;2022-09-29T14:04:34;6.97;;;1.40;;
6987;SDS011;3534;49.960;8.018;2022-09-29T14:07:12;1.47;;;1.00;;
6987;SDS011;3534;49.960;8.018;2022-09-29T14:10:02;28.13;;;16.57;;
6987;SDS011;3534;49.960;8.018;2022-09-29T14:12:34;5.17;;;1.30;;
6987;SDS011;3534;49.960;8.018;2022-09-29T14:15:01;2.70;;;0.87;;
6987;SDS011;3534;49.960;8.018;2022-09-29T14:17:30;3.70;;;1.00;;
6987;SDS011;3534;49.960;8.018;2022-09-29T14:20:01;2.13;;;1.00;;
6987;SDS011;3534;49.960;8.018;2022-09-29T14:22:50;2.13;;;1.00;;
6987;SDS011;3534;49.960;8.018;2022-09-29T14:28:22;2.53;;;1.20;;
6987;SDS011;3534;49.960;8.018;2022-09-29T14:30:57;3.20;;;1.50;;
6987;SDS011;3534;49.960;8.018;2022-09-29T14:33:28;13.27;;;1.77;;
6987;SDS011;3534;49.960;8.018;2022-09-29T14:36:05;3.43;;;1.70;;
6987;SDS011;3534;49.960;8.018;2022-09-29T14:38:36;3.10;;;1.20;;
6987;SDS011;3534;49.960;8.018;2022-09-29T14:41:21;5.80;;;1.23;;
6987;SDS011;3534;49.960;8.018;2022-09-29T14:43:57;3.83;;;1.00;;
6987;SDS011;3534;49.960;8.018;2022-09-29T14:46:33;2.20;;;1.10;;
6987;SDS011;3534;49.960;8.018;2022-09-29T14:49:35;3.43;;;1.30;;
6987;SDS011;3534;49.960;8.018;2022-09-29T14:52:32;4.40;;;1.77;;
6987;SDS011;3534;49.960;8.018;2022-09-29T14:55:11;5.37;;;1.30;;
6987;SDS011;3534;49.960;8.018;2022-09-29T14:57:46;12.50;;;1.30;;
6987;SDS011;3534;49.960;8.018;2022-09-29T15:00:31;3.83;;;1.43;;
6987;SDS011;3534;49.960;8.018;2022-09-29T15:03:09;4.70;;;1.50;;
6987;SDS011;3534;49.960;8.018;2022-09-29T15:05:40;2.00;;;1.27;;
6987;SDS011;3534;49.960;8.018;2022-09-29T15:08:18;3.73;;;1.60;;
6987;SDS011;3534;49.960;8.018;2022-09-29T15:10:49;1.53;;;1.30;;
6987;SDS011;3534;49.960;8.018;2022-09-29T15:13:16;6.57;;;1.77;;
6987;SDS011;3534;49.960;8.018;2022-09-29T15:15:48;3.93;;;2.00;;
6987;SDS011;3534;49.960;8.018;2022-09-29T15:18:30;10.83;;;1.90;;
6987;SDS011;3534;49.960;8.018;2022-09-29T15:21:18;3.80;;;1.73;;
6987;SDS011;3534;49.960;8.018;2022-09-29T15:23:56;3.33;;;1.67;;
6987;SDS011;3534;49.960;8.018;2022-09-29T15:26:41;3.00;;;1.53;;
6987;SDS011;3534;49.960;8.018;2022-09-29T15:29:10;1.27;;;1.17;;
6987;SDS011;3534;49.960;8.018;2022-09-29T15:31:43;2.83;;;1.43;;
6987;SDS011;3534;49.960;8.018;2022-09-29T15:34:13;1.57;;;1.33;;
6987;SDS011;3534;49.960;8.018;2022-09-29T15:36:44;2.67;;;0.87;;
6987;SDS011;3534;49.960;8.018;2022-09-29T15:39:24;1.40;;;0.97;;
6987;SDS011;3534;49.960;8.018;2022-09-29T15:42:10;2.53;;;1.40;;
6987;SDS011;3534;49.960;8.018;2022-09-29T15:44:43;3.03;;;1.60;;
6987;SDS011;3534;49.960;8.018;2022-09-29T15:47:22;2.70;;;1.10;;
6987;SDS011;3534;49.960;8.018;2022-09-29T15:49:52;2.60;;;1.50;;
6987;SDS011;3534;49.960;8.018;2022-09-29T15:52:20;2.80;;;1.70;;
6987;SDS011;3534;49.960;8.018;2022-09-29T15:54:52;2.27;;;1.10;;
6987;SDS011;3534;49.960;8.018;2022-09-29T15:57:28;1.63;;;1.07;;
6987;SDS011;3534;49.960;8.018;2022-09-29T16:03:21;2.37;;;1.30;;
6987;SDS011;3534;49.960;8.018;2022-09-29T16:06:02;3.03;;;1.37;;
6987;SDS011;3534;49.960;8.018;2022-09-29T16:08:32;2.53;;;1.27;;
6987;SDS011;3534;49.960;8.018;2022-09-29T16:11:04;2.77;;;1.20;;
6987;SDS011;3534;49.960;8.018;2022-09-29T16:13:34;2.13;;;1.20;;
6987;SDS011;3534;49.960;8.018;2022-09-29T16:16:05;2.27;;;2.07;;
6987;SDS011;3534;49.960;8.018;2022-09-29T16:18:38;1.40;;;1.30;;
6987;SDS011;3534;49.960;8.018;2022-09-29T16:21:08;1.67;;;0.90;;
6987;SDS011;3534;49.960;8.018;2022-09-29T16:23:37;0.87;;;0.87;;
6987;SDS011;3534;49.960;8.018;2022-09-29T16:26:08;1.43;;;0.87;;
6987;SDS011;3534;49.960;8.018;2022-09-29T16:28:38;1.73;;;0.93;;